sensor_id;sensor_type;location;lat;lon;timestamp;pressure;altitude;pressure_sealevel;temperature;humidity
69772;BME280;57046;45.988;18.664;2022-07-06T00:02:04;100768.59;;;19.07;85.51
69772;BME280;57046;45.988;18.664;2022-07-06T00:04:30;100762.63;;;19.01;86.06
69772;BME280;57046;45.988;18.664;2022-07-06T00:06:55;100765.63;;;18.93;86.22
69772;BME280;57046;45.988;18.664;2022-07-06T00:09:20;100769.56;;;18.95;86.32
69772;BME280;57046;45.988;18.664;2022-07-06T00:11:46;100758.19;;;18.93;86.13
69772;BME280;57046;45.988;18.664;2022-07-06T00:14:11;100754.44;;;18.78;86.82
69772;BME280;57046;45.988;18.664;2022-07-06T00:16:37;100744.16;;;18.95;85.99
69772;BME280;57046;45.988;18.664;2022-07-06T00:19:02;100753.34;;;18.83;87.14
69772;BME280;57046;45.988;18.664;2022-07-06T00:21:28;100749.47;;;18.84;86.69
69772;BME280;57046;45.988;18.664;2022-07-06T00:23:53;100745.13;;;18.83;86.78
69772;BME280;57046;45.988;18.664;2022-07-06T00:26:19;100736.00;;;18.75;87.27
69772;BME280;57046;45.988;18.664;2022-07-06T00:28:44;100738.41;;;18.77;87.13
69772;BME280;57046;45.988;18.664;2022-07-06T00:31:10;100736.41;;;18.74;87.47
69772;BME280;57046;45.988;18.664;2022-07-06T00:33:35;100731.38;;;18.79;87.35
69772;BME280;57046;45.988;18.664;2022-07-06T00:36:01;100738.13;;;18.59;87.91
69772;BME280;57046;45.988;18.664;2022-07-06T00:38:26;100738.41;;;18.54;88.57
69772;BME280;57046;45.988;18.664;2022-07-06T00:40:52;100736.34;;;18.70;87.32
69772;BME280;57046;45.988;18.664;2022-07-06T00:43:17;100733.00;;;18.58;87.93
69772;BME280;57046;45.988;18.664;2022-07-06T00:45:42;100734.84;;;18.50;88.19
69772;BME280;57046;45.988;18.664;2022-07-06T00:48:08;100721.75;;;18.40;89.54
69772;BME280;57046;45.988;18.664;2022-07-06T00:50:33;100726.63;;;18.50;88.47
69772;BME280;57046;45.988;18.664;2022-07-06T00:53:00;100715.31;;;18.52;88.49
69772;BME280;57046;45.988;18.664;2022-07-06T00:55:29;100722.22;;;18.68;87.13
69772;BME280;57046;45.988;18.664;2022-07-06T00:57:56;100723.28;;;18.87;85.85
69772;BME280;57046;45.988;18.664;2022-07-06T01:00:23;100723.44;;;18.71;86.81
69772;BME280;57046;45.988;18.664;2022-07-06T01:02:50;100718.78;;;18.75;86.34
69772;BME280;57046;45.988;18.664;2022-07-06T01:05:16;100728.47;;;18.95;85.65
69772;BME280;57046;45.988;18.664;2022-07-06T01:07:43;100720.53;;;18.87;85.48
69772;BME280;57046;45.988;18.664;2022-07-06T01:10:12;100719.34;;;18.84;85.95
69772;BME280;57046;45.988;18.664;2022-07-06T01:12:39;100719.84;;;18.93;85.43
69772;BME280;57046;45.988;18.664;2022-07-06T01:15:07;100717.63;;;19.02;84.83
69772;BME280;57046;45.988;18.664;2022-07-06T01:17:33;100706.78;;;18.83;85.70
69772;BME280;57046;45.988;18.664;2022-07-06T01:20:12;100703.44;;;18.67;86.56
69772;BME280;57046;45.988;18.664;2022-07-06T01:22:38;100704.00;;;18.79;86.14
69772;BME280;57046;45.988;18.664;2022-07-06T01:25:05;100688.78;;;18.56;87.39
69772;BME280;57046;45.988;18.664;2022-07-06T01:27:30;100692.38;;;18.60;86.98
69772;BME280;57046;45.988;18.664;2022-07-06T01:29:56;100690.44;;;18.60;86.92
69772;BME280;57046;45.988;18.664;2022-07-06T01:32:21;100694.88;;;18.72;86.46
69772;BME280;57046;45.988;18.664;2022-07-06T01:34:47;100693.69;;;18.69;85.82
69772;BME280;57046;45.988;18.664;2022-07-06T01:37:12;100693.97;;;18.61;86.29
69772;BME280;57046;45.988;18.664;2022-07-06T01:39:37;100687.97;;;18.55;85.91
69772;BME280;57046;45.988;18.664;2022-07-06T01:42:03;100696.19;;;18.55;85.99
69772;BME280;57046;45.988;18.664;2022-07-06T01:44:28;100697.56;;;18.68;85.45
69772;BME280;57046;45.988;18.664;2022-07-06T01:46:54;100691.22;;;18.61;85.33
69772;BME280;57046;45.988;18.664;2022-07-06T01:49:19;100698.88;;;18.52;85.56
69772;BME280;57046;45.988;18.664;2022-07-06T01:51:44;100693.97;;;18.64;84.37
69772;BME280;57046;45.988;18.664;2022-07-06T01:54:10;100698.72;;;18.45;85.56
69772;BME280;57046;45.988;18.664;2022-07-06T01:56:35;100701.84;;;18.43;85.72
69772;BME280;57046;45.988;18.664;2022-07-06T01:59:00;100703.97;;;18.30;86.19
69772;BME280;57046;45.988;18.664;2022-07-06T02:01:26;100706.00;;;18.34;85.93
69772;BME280;57046;45.988;18.664;2022-07-06T02:03:51;100705.66;;;18.61;84.52
69772;BME280;57046;45.988;18.664;2022-07-06T02:06:16;100703.91;;;18.50;84.18
69772;BME280;57046;45.988;18.664;2022-07-06T02:08:42;100702.59;;;18.40;84.79
69772;BME280;57046;45.988;18.664;2022-07-06T02:11:09;100697.59;;;18.46;83.95
69772;BME280;57046;45.988;18.664;2022-07-06T02:13:35;100698.88;;;18.52;83.75
69772;BME280;57046;45.988;18.664;2022-07-06T02:16:02;100706.34;;;18.55;83.17
69772;BME280;57046;45.988;18.664;2022-07-06T02:18:28;100702.47;;;18.33;84.02
69772;BME280;57046;45.988;18.664;2022-07-06T02:20:54;100705.69;;;18.39;83.73
69772;BME280;57046;45.988;18.664;2022-07-06T02:23:19;100710.53;;;18.49;82.96
69772;BME280;57046;45.988;18.664;2022-07-06T02:25:44;100709.88;;;18.55;82.26
69772;BME280;57046;45.988;18.664;2022-07-06T02:28:10;100713.09;;;18.38;82.58
69772;BME280;57046;45.988;18.664;2022-07-06T02:30:35;100716.50;;;18.54;81.70
69772;BME280;57046;45.988;18.664;2022-07-06T02:33:00;100703.72;;;18.62;80.45
69772;BME280;57046;45.988;18.664;2022-07-06T02:35:26;100713.66;;;18.47;80.95
69772;BME280;57046;45.988;18.664;2022-07-06T02:37:51;100724.66;;;18.51;80.72
69772;BME280;57046;45.988;18.664;2022-07-06T02:40:17;100727.03;;;18.52;80.17
69772;BME280;57046;45.988;18.664;2022-07-06T02:42:42;100736.91;;;18.57;79.79
69772;BME280;57046;45.988;18.664;2022-07-06T02:45:08;100733.72;;;18.32;81.11
69772;BME280;57046;45.988;18.664;2022-07-06T02:47:34;100722.63;;;18.48;80.71
69772;BME280;57046;45.988;18.664;2022-07-06T02:49:59;100735.13;;;18.22;81.38
69772;BME280;57046;45.988;18.664;2022-07-06T02:52:25;100720.66;;;18.22;81.80
69772;BME280;57046;45.988;18.664;2022-07-06T02:54:50;100716.13;;;18.10;81.90
69772;BME280;57046;45.988;18.664;2022-07-06T02:57:16;100710.06;;;18.20;80.81
69772;BME280;57046;45.988;18.664;2022-07-06T02:59:42;100710.19;;;18.27;80.65
69772;BME280;57046;45.988;18.664;2022-07-06T03:02:08;100720.84;;;18.33;80.41
69772;BME280;57046;45.988;18.664;2022-07-06T03:04:33;100717.53;;;18.01;81.90
69772;BME280;57046;45.988;18.664;2022-07-06T03:06:59;100722.47;;;18.14;81.07
69772;BME280;57046;45.988;18.664;2022-07-06T03:09:25;100721.84;;;18.02;81.10
69772;BME280;57046;45.988;18.664;2022-07-06T03:11:50;100718.44;;;18.08;80.72
69772;BME280;57046;45.988;18.664;2022-07-06T03:14:16;100736.91;;;17.92;81.96
69772;BME280;57046;45.988;18.664;2022-07-06T03:16:41;100730.53;;;18.07;80.90
69772;BME280;57046;45.988;18.664;2022-07-06T03:19:07;100733.72;;;18.09;81.05
69772;BME280;57046;45.988;18.664;2022-07-06T03:21:32;100734.69;;;18.20;81.04
69772;BME280;57046;45.988;18.664;2022-07-06T03:23:58;100735.53;;;18.24;80.66
69772;BME280;57046;45.988;18.664;2022-07-06T03:26:23;100735.31;;;17.91;82.59
69772;BME280;57046;45.988;18.664;2022-07-06T03:28:48;100734.13;;;18.11;81.63
69772;BME280;57046;45.988;18.664;2022-07-06T03:31:14;100736.19;;;17.95;82.23
69772;BME280;57046;45.988;18.664;2022-07-06T03:33:39;100737.00;;;18.18;81.56
69772;BME280;57046;45.988;18.664;2022-07-06T03:36:04;100739.72;;;17.96;82.02
69772;BME280;57046;45.988;18.664;2022-07-06T03:38:30;100738.47;;;18.12;81.11
69772;BME280;57046;45.988;18.664;2022-07-06T03:40:56;100739.19;;;18.32;80.77
69772;BME280;57046;45.988;18.664;2022-07-06T03:43:21;100726.38;;;18.36;80.09
69772;BME280;57046;45.988;18.664;2022-07-06T03:45:46;100725.09;;;18.30;80.39
69772;BME280;57046;45.988;18.664;2022-07-06T03:48:12;100725.63;;;18.39;79.64
69772;BME280;57046;45.988;18.664;2022-07-06T03:50:37;100726.03;;;18.41;79.27
69772;BME280;57046;45.988;18.664;2022-07-06T03:53:02;100715.84;;;18.38;79.51
69772;BME280;57046;45.988;18.664;2022-07-06T03:55:28;100726.03;;;18.41;79.34
69772;BME280;57046;45.988;18.664;2022-07-06T03:57:53;100715.75;;;18.54;78.47
69772;BME280;57046;45.988;18.664;2022-07-06T04:00:18;100721.06;;;18.69;76.99
69772;BME280;57046;45.988;18.664;2022-07-06T04:02:44;100717.13;;;18.67;77.30
69772;BME280;57046;45.988;18.664;2022-07-06T04:05:09;100722.03;;;18.58;77.42
69772;BME280;57046;45.988;18.664;2022-07-06T04:07:34;100724.09;;;18.64;76.55
69772;BME280;57046;45.988;18.664;2022-07-06T04:10:00;100723.97;;;18.80;76.04
69772;BME280;57046;45.988;18.664;2022-07-06T04:12:25;100717.28;;;18.77;76.10
69772;BME280;57046;45.988;18.664;2022-07-06T04:14:51;100718.03;;;18.74;76.06
69772;BME280;57046;45.988;18.664;2022-07-06T04:17:16;100715.69;;;18.76;75.39
69772;BME280;57046;45.988;18.664;2022-07-06T04:19:41;100712.63;;;18.81;74.78
69772;BME280;57046;45.988;18.664;2022-07-06T04:22:07;100727.22;;;18.89;74.65
69772;BME280;57046;45.988;18.664;2022-07-06T04:24:32;100721.06;;;18.96;74.53
69772;BME280;57046;45.988;18.664;2022-07-06T04:26:57;100720.75;;;19.01;73.75
69772;BME280;57046;45.988;18.664;2022-07-06T04:29:23;100720.38;;;19.02;73.44
69772;BME280;57046;45.988;18.664;2022-07-06T04:31:48;100717.72;;;19.09;73.25
69772;BME280;57046;45.988;18.664;2022-07-06T04:34:13;100716.72;;;19.21;72.55
69772;BME280;57046;45.988;18.664;2022-07-06T04:36:39;100719.38;;;19.14;72.88
69772;BME280;57046;45.988;18.664;2022-07-06T04:39:04;100712.53;;;19.30;71.63
69772;BME280;57046;45.988;18.664;2022-07-06T04:41:29;100718.84;;;19.35;71.36
69772;BME280;57046;45.988;18.664;2022-07-06T04:43:55;100712.78;;;19.48;70.91
69772;BME280;57046;45.988;18.664;2022-07-06T04:46:20;100711.19;;;19.47;71.22
69772;BME280;57046;45.988;18.664;2022-07-06T04:48:45;100713.81;;;19.70;69.11
69772;BME280;57046;45.988;18.664;2022-07-06T04:51:11;100710.44;;;19.83;69.52
69772;BME280;57046;45.988;18.664;2022-07-06T04:53:36;100720.28;;;19.88;67.37
69772;BME280;57046;45.988;18.664;2022-07-06T04:56:01;100702.06;;;20.06;67.62
69772;BME280;57046;45.988;18.664;2022-07-06T04:58:27;100706.03;;;20.12;67.83
69772;BME280;57046;45.988;18.664;2022-07-06T05:00:52;100703.09;;;20.31;67.01
69772;BME280;57046;45.988;18.664;2022-07-06T05:03:17;100696.34;;;20.25;66.89
69772;BME280;57046;45.988;18.664;2022-07-06T05:05:43;100690.59;;;20.38;66.74
69772;BME280;57046;45.988;18.664;2022-07-06T05:08:08;100696.63;;;20.57;66.47
69772;BME280;57046;45.988;18.664;2022-07-06T05:10:33;100702.16;;;20.61;66.16
69772;BME280;57046;45.988;18.664;2022-07-06T05:12:59;100699.81;;;20.63;66.61
69772;BME280;57046;45.988;18.664;2022-07-06T05:15:24;100695.66;;;20.90;65.89
69772;BME280;57046;45.988;18.664;2022-07-06T05:17:49;100698.34;;;20.79;66.93
69772;BME280;57046;45.988;18.664;2022-07-06T05:20:15;100700.38;;;20.90;66.06
69772;BME280;57046;45.988;18.664;2022-07-06T05:22:40;100696.53;;;21.05;65.83
69772;BME280;57046;45.988;18.664;2022-07-06T05:25:06;100708.69;;;21.00;66.52
69772;BME280;57046;45.988;18.664;2022-07-06T05:27:31;100706.84;;;21.15;65.75
69772;BME280;57046;45.988;18.664;2022-07-06T05:29:56;100715.91;;;21.19;65.83
69772;BME280;57046;45.988;18.664;2022-07-06T05:32:22;100721.41;;;21.22;65.53
69772;BME280;57046;45.988;18.664;2022-07-06T05:34:49;100723.84;;;21.38;64.65
69772;BME280;57046;45.988;18.664;2022-07-06T05:37:15;100728.47;;;21.23;64.94
69772;BME280;57046;45.988;18.664;2022-07-06T05:39:40;100728.94;;;21.36;65.33
69772;BME280;57046;45.988;18.664;2022-07-06T05:42:05;100729.34;;;21.42;64.92
69772;BME280;57046;45.988;18.664;2022-07-06T05:44:31;100723.09;;;21.52;64.50
69772;BME280;57046;45.988;18.664;2022-07-06T05:46:56;100727.41;;;21.46;64.31
69772;BME280;57046;45.988;18.664;2022-07-06T05:49:21;100731.00;;;21.57;64.21
69772;BME280;57046;45.988;18.664;2022-07-06T05:51:47;100720.44;;;21.69;64.13
69772;BME280;57046;45.988;18.664;2022-07-06T05:54:12;100721.94;;;21.49;64.52
69772;BME280;57046;45.988;18.664;2022-07-06T05:56:37;100716.91;;;21.79;64.49
69772;BME280;57046;45.988;18.664;2022-07-06T05:59:03;100726.75;;;21.80;63.50
69772;BME280;57046;45.988;18.664;2022-07-06T06:01:28;100728.72;;;21.83;63.17
69772;BME280;57046;45.988;18.664;2022-07-06T06:03:53;100723.66;;;21.93;63.07
69772;BME280;57046;45.988;18.664;2022-07-06T06:06:19;100719.75;;;21.97;63.85
69772;BME280;57046;45.988;18.664;2022-07-06T06:08:44;100712.25;;;21.91;62.83
69772;BME280;57046;45.988;18.664;2022-07-06T06:11:09;100715.41;;;22.00;62.32
69772;BME280;57046;45.988;18.664;2022-07-06T06:13:35;100721.75;;;22.21;62.36
69772;BME280;57046;45.988;18.664;2022-07-06T06:16:00;100728.44;;;22.20;60.75
69772;BME280;57046;45.988;18.664;2022-07-06T06:18:26;100730.75;;;22.11;61.29
69772;BME280;57046;45.988;18.664;2022-07-06T06:20:51;100730.75;;;22.18;61.20
69772;BME280;57046;45.988;18.664;2022-07-06T06:23:17;100722.50;;;22.15;61.13
69772;BME280;57046;45.988;18.664;2022-07-06T06:25:42;100737.09;;;22.40;61.21
69772;BME280;57046;45.988;18.664;2022-07-06T06:28:09;100733.53;;;22.36;61.00
69772;BME280;57046;45.988;18.664;2022-07-06T06:30:36;100744.19;;;22.38;60.35
69772;BME280;57046;45.988;18.664;2022-07-06T06:33:13;100739.06;;;22.43;60.27
69772;BME280;57046;45.988;18.664;2022-07-06T06:35:43;100738.69;;;22.59;59.72
69772;BME280;57046;45.988;18.664;2022-07-06T06:38:09;100741.44;;;22.38;59.97
69772;BME280;57046;45.988;18.664;2022-07-06T06:40:35;100739.06;;;22.50;60.04
69772;BME280;57046;45.988;18.664;2022-07-06T06:43:00;100749.28;;;22.57;59.49
69772;BME280;57046;45.988;18.664;2022-07-06T06:45:26;100742.59;;;22.65;59.79
69772;BME280;57046;45.988;18.664;2022-07-06T06:47:51;100743.81;;;22.74;58.58
69772;BME280;57046;45.988;18.664;2022-07-06T06:50:17;100736.31;;;22.61;59.46
69772;BME280;57046;45.988;18.664;2022-07-06T06:52:42;100746.56;;;22.74;58.41
69772;BME280;57046;45.988;18.664;2022-07-06T06:55:08;100743.00;;;22.81;58.66
69772;BME280;57046;45.988;18.664;2022-07-06T06:57:34;100746.56;;;22.89;58.93
69772;BME280;57046;45.988;18.664;2022-07-06T06:59:59;100745.34;;;22.93;58.37
69772;BME280;57046;45.988;18.664;2022-07-06T07:02:24;100750.09;;;22.96;57.64
69772;BME280;57046;45.988;18.664;2022-07-06T07:04:50;100756.00;;;22.88;58.16
69772;BME280;57046;45.988;18.664;2022-07-06T07:07:15;100750.88;;;22.90;57.98
69772;BME280;57046;45.988;18.664;2022-07-06T07:09:40;100746.47;;;23.20;58.16
69772;BME280;57046;45.988;18.664;2022-07-06T07:12:06;100749.19;;;23.31;56.26
69772;BME280;57046;45.988;18.664;2022-07-06T07:14:31;100746.44;;;23.34;57.17
69772;BME280;57046;45.988;18.664;2022-07-06T07:16:57;100741.75;;;23.21;57.07
69772;BME280;57046;45.988;18.664;2022-07-06T07:19:22;100751.50;;;23.61;56.05
69772;BME280;57046;45.988;18.664;2022-07-06T07:21:47;100745.19;;;23.60;55.20
69772;BME280;57046;45.988;18.664;2022-07-06T07:24:13;100745.44;;;23.87;54.68
69772;BME280;57046;45.988;18.664;2022-07-06T07:26:38;100738.09;;;24.32;54.36
69772;BME280;57046;45.988;18.664;2022-07-06T07:29:03;100745.13;;;24.40;53.68
69772;BME280;57046;45.988;18.664;2022-07-06T07:31:29;100745.56;;;24.35;53.37
69772;BME280;57046;45.988;18.664;2022-07-06T07:33:54;100757.13;;;24.67;53.61
69772;BME280;57046;45.988;18.664;2022-07-06T07:36:19;100756.22;;;24.33;53.47
69772;BME280;57046;45.988;18.664;2022-07-06T07:38:45;100749.59;;;24.23;52.89
69772;BME280;57046;45.988;18.664;2022-07-06T07:41:10;100754.78;;;24.66;53.75
69772;BME280;57046;45.988;18.664;2022-07-06T07:43:35;100750.81;;;24.67;52.04
69772;BME280;57046;45.988;18.664;2022-07-06T07:46:01;100754.75;;;24.69;52.58
69772;BME280;57046;45.988;18.664;2022-07-06T07:48:26;100747.16;;;24.77;52.58
69772;BME280;57046;45.988;18.664;2022-07-06T07:50:51;100744.06;;;25.16;52.39
69772;BME280;57046;45.988;18.664;2022-07-06T07:53:17;100757.41;;;24.83;52.71
69772;BME280;57046;45.988;18.664;2022-07-06T07:55:42;100759.38;;;24.87;51.80
69772;BME280;57046;45.988;18.664;2022-07-06T07:58:07;100755.75;;;24.93;52.26
69772;BME280;57046;45.988;18.664;2022-07-06T08:00:33;100755.88;;;25.20;51.24
69772;BME280;57046;45.988;18.664;2022-07-06T08:02:58;100758.94;;;25.29;50.49
69772;BME280;57046;45.988;18.664;2022-07-06T08:05:24;100760.22;;;25.21;50.00
69772;BME280;57046;45.988;18.664;2022-07-06T08:07:49;100753.22;;;25.43;50.23
69772;BME280;57046;45.988;18.664;2022-07-06T08:10:15;100760.56;;;25.60;49.09
69772;BME280;57046;45.988;18.664;2022-07-06T08:12:40;100760.09;;;25.65;49.31
69772;BME280;57046;45.988;18.664;2022-07-06T08:15:06;100756.56;;;25.65;49.45
69772;BME280;57046;45.988;18.664;2022-07-06T08:17:32;100749.31;;;25.74;48.22
69772;BME280;57046;45.988;18.664;2022-07-06T08:19:57;100744.53;;;25.78;47.93
69772;BME280;57046;45.988;18.664;2022-07-06T08:22:23;100752.09;;;25.74;48.62
69772;BME280;57046;45.988;18.664;2022-07-06T08:24:48;100759.53;;;26.08;48.43
69772;BME280;57046;45.988;18.664;2022-07-06T08:27:14;100761.81;;;26.13;47.72
69772;BME280;57046;45.988;18.664;2022-07-06T08:29:40;100754.44;;;26.03;47.38
69772;BME280;57046;45.988;18.664;2022-07-06T08:32:06;100761.22;;;26.28;47.27
69772;BME280;57046;45.988;18.664;2022-07-06T08:34:31;100764.91;;;26.22;46.87
69772;BME280;57046;45.988;18.664;2022-07-06T08:36:57;100761.00;;;26.16;48.00
69772;BME280;57046;45.988;18.664;2022-07-06T08:39:22;100756.50;;;26.52;47.36
69772;BME280;57046;45.988;18.664;2022-07-06T08:41:48;100754.06;;;26.31;46.39
69772;BME280;57046;45.988;18.664;2022-07-06T08:44:17;100750.56;;;26.27;46.00
69772;BME280;57046;45.988;18.664;2022-07-06T08:46:44;100757.63;;;26.55;45.83
69772;BME280;57046;45.988;18.664;2022-07-06T08:49:16;100754.41;;;26.83;45.87
69772;BME280;57046;45.988;18.664;2022-07-06T08:51:42;100762.34;;;26.81;45.05
69772;BME280;57046;45.988;18.664;2022-07-06T08:54:08;100765.94;;;26.78;45.10
69772;BME280;57046;45.988;18.664;2022-07-06T08:56:33;100763.84;;;26.62;45.32
69772;BME280;57046;45.988;18.664;2022-07-06T08:58:59;100761.31;;;26.71;45.28
69772;BME280;57046;45.988;18.664;2022-07-06T09:01:25;100766.22;;;27.10;44.88
69772;BME280;57046;45.988;18.664;2022-07-06T09:03:51;100763.09;;;27.28;46.00
69772;BME280;57046;45.988;18.664;2022-07-06T09:06:22;100767.06;;;27.07;44.42
69772;BME280;57046;45.988;18.664;2022-07-06T09:08:49;100754.47;;;27.22;44.20
69772;BME280;57046;45.988;18.664;2022-07-06T09:11:16;100760.72;;;27.07;45.07
69772;BME280;57046;45.988;18.664;2022-07-06T09:13:41;100759.28;;;27.18;43.22
69772;BME280;57046;45.988;18.664;2022-07-06T09:16:11;100763.19;;;27.44;44.48
69772;BME280;57046;45.988;18.664;2022-07-06T09:18:40;100757.72;;;27.96;44.20
69772;BME280;57046;45.988;18.664;2022-07-06T09:21:08;100774.63;;;27.26;43.55
69772;BME280;57046;45.988;18.664;2022-07-06T09:23:35;100772.03;;;27.16;43.91
69772;BME280;57046;45.988;18.664;2022-07-06T09:26:02;100767.81;;;27.70;42.28
69772;BME280;57046;45.988;18.664;2022-07-06T09:28:48;100768.13;;;27.92;42.78
69772;BME280;57046;45.988;18.664;2022-07-06T09:31:14;100758.78;;;27.47;42.44
69772;BME280;57046;45.988;18.664;2022-07-06T09:34:03;100761.94;;;27.85;43.09
69772;BME280;57046;45.988;18.664;2022-07-06T09:36:49;100768.38;;;27.81;41.71
69772;BME280;57046;45.988;18.664;2022-07-06T09:39:28;100770.97;;;28.08;41.51
69772;BME280;57046;45.988;18.664;2022-07-06T09:41:58;100768.94;;;27.93;39.94
69772;BME280;57046;45.988;18.664;2022-07-06T09:44:32;100756.75;;;28.06;40.38
69772;BME280;57046;45.988;18.664;2022-07-06T09:47:03;100767.09;;;28.38;40.15
69772;BME280;57046;45.988;18.664;2022-07-06T09:49:29;100762.50;;;27.96;42.61
69772;BME280;57046;45.988;18.664;2022-07-06T09:51:57;100768.63;;;28.07;39.94
69772;BME280;57046;45.988;18.664;2022-07-06T09:54:23;100765.25;;;28.15;40.65
69772;BME280;57046;45.988;18.664;2022-07-06T09:56:50;100772.13;;;27.91;40.07
69772;BME280;57046;45.988;18.664;2022-07-06T09:59:17;100764.75;;;28.01;41.21
69772;BME280;57046;45.988;18.664;2022-07-06T10:01:43;100765.72;;;28.78;41.22
69772;BME280;57046;45.988;18.664;2022-07-06T10:04:10;100768.91;;;28.28;38.42
69772;BME280;57046;45.988;18.664;2022-07-06T10:06:36;100774.06;;;28.46;37.42
69772;BME280;57046;45.988;18.664;2022-07-06T10:09:05;100767.91;;;29.32;38.08
69772;BME280;57046;45.988;18.664;2022-07-06T10:11:34;100773.47;;;29.16;37.65
69772;BME280;57046;45.988;18.664;2022-07-06T10:14:03;100758.66;;;28.90;37.69
69772;BME280;57046;45.988;18.664;2022-07-06T10:16:30;100755.69;;;29.55;39.35
69772;BME280;57046;45.988;18.664;2022-07-06T10:18:55;100764.78;;;29.14;36.95
69772;BME280;57046;45.988;18.664;2022-07-06T10:21:22;100759.28;;;28.33;37.74
69772;BME280;57046;45.988;18.664;2022-07-06T10:23:49;100755.72;;;28.81;38.34
69772;BME280;57046;45.988;18.664;2022-07-06T10:26:16;100754.84;;;29.13;37.18
69772;BME280;57046;45.988;18.664;2022-07-06T10:28:42;100772.91;;;29.37;37.77
69772;BME280;57046;45.988;18.664;2022-07-06T10:31:08;100756.88;;;28.67;36.26
69772;BME280;57046;45.988;18.664;2022-07-06T10:33:34;100762.06;;;29.55;35.70
69772;BME280;57046;45.988;18.664;2022-07-06T10:36:00;100758.88;;;29.12;35.27
69772;BME280;57046;45.988;18.664;2022-07-06T10:38:33;100747.81;;;29.66;35.54
69772;BME280;57046;45.988;18.664;2022-07-06T10:41:06;100754.00;;;29.45;38.10
69772;BME280;57046;45.988;18.664;2022-07-06T10:43:42;100767.50;;;29.46;35.62
69772;BME280;57046;45.988;18.664;2022-07-06T10:46:15;100749.34;;;29.67;34.82
69772;BME280;57046;45.988;18.664;2022-07-06T10:48:42;100758.19;;;29.65;35.75
69772;BME280;57046;45.988;18.664;2022-07-06T10:51:10;100761.78;;;29.91;35.76
69772;BME280;57046;45.988;18.664;2022-07-06T10:53:38;100755.22;;;29.98;32.75
69772;BME280;57046;45.988;18.664;2022-07-06T10:56:05;100766.31;;;29.60;33.69
69772;BME280;57046;45.988;18.664;2022-07-06T10:58:37;100761.75;;;29.66;33.98
69772;BME280;57046;45.988;18.664;2022-07-06T11:01:04;100755.22;;;29.85;33.38
69772;BME280;57046;45.988;18.664;2022-07-06T11:03:47;100751.28;;;29.83;34.84
69772;BME280;57046;45.988;18.664;2022-07-06T11:06:19;100760.94;;;30.45;33.76
69772;BME280;57046;45.988;18.664;2022-07-06T11:11:15;100761.25;;;30.34;31.23
69772;BME280;57046;45.988;18.664;2022-07-06T11:14:16;100764.25;;;30.40;32.72
69772;BME280;57046;45.988;18.664;2022-07-06T11:24:17;100771.31;;;30.91;31.54
69772;BME280;57046;45.988;18.664;2022-07-06T11:26:48;100768.44;;;31.16;30.24
69772;BME280;57046;45.988;18.664;2022-07-06T11:29:15;100775.13;;;30.85;29.91
69772;BME280;57046;45.988;18.664;2022-07-06T11:31:42;100760.00;;;30.60;29.89
69772;BME280;57046;45.988;18.664;2022-07-06T11:34:09;100770.16;;;30.67;32.40
69772;BME280;57046;45.988;18.664;2022-07-06T11:36:36;100769.91;;;30.74;28.48
69772;BME280;57046;45.988;18.664;2022-07-06T11:39:02;100756.91;;;30.58;29.08
69772;BME280;57046;45.988;18.664;2022-07-06T11:41:27;100759.97;;;30.86;28.22
69772;BME280;57046;45.988;18.664;2022-07-06T11:43:53;100748.19;;;30.91;27.83
69772;BME280;57046;45.988;18.664;2022-07-06T11:48:53;100765.53;;;30.86;27.48
69772;BME280;57046;45.988;18.664;2022-07-06T11:51:19;100751.94;;;30.75;28.07
69772;BME280;57046;45.988;18.664;2022-07-06T11:53:58;100756.63;;;30.78;27.84
69772;BME280;57046;45.988;18.664;2022-07-06T11:56:24;100751.72;;;30.69;28.22
69772;BME280;57046;45.988;18.664;2022-07-06T11:58:49;100753.00;;;31.46;28.24
69772;BME280;57046;45.988;18.664;2022-07-06T12:01:15;100754.44;;;30.22;28.48
69772;BME280;57046;45.988;18.664;2022-07-06T12:03:44;100743.34;;;30.69;27.20
69772;BME280;57046;45.988;18.664;2022-07-06T12:06:21;100738.81;;;30.50;27.16
69772;BME280;57046;45.988;18.664;2022-07-06T12:08:52;100750.88;;;29.97;28.24
69772;BME280;57046;45.988;18.664;2022-07-06T12:11:26;100753.09;;;30.40;27.08
69772;BME280;57046;45.988;18.664;2022-07-06T12:13:53;100748.56;;;31.14;28.04
69772;BME280;57046;45.988;18.664;2022-07-06T12:16:19;100749.97;;;30.38;27.43
69772;BME280;57046;45.988;18.664;2022-07-06T12:18:46;100740.44;;;30.73;27.92
69772;BME280;57046;45.988;18.664;2022-07-06T12:21:15;100740.69;;;31.00;29.79
69772;BME280;57046;45.988;18.664;2022-07-06T12:23:43;100738.69;;;31.01;27.26
69772;BME280;57046;45.988;18.664;2022-07-06T12:26:09;100726.03;;;30.74;26.89
69772;BME280;57046;45.988;18.664;2022-07-06T12:28:35;100743.38;;;31.25;26.11
69772;BME280;57046;45.988;18.664;2022-07-06T12:31:00;100734.47;;;31.18;26.00
69772;BME280;57046;45.988;18.664;2022-07-06T12:33:26;100738.72;;;31.22;26.36
69772;BME280;57046;45.988;18.664;2022-07-06T12:35:51;100740.78;;;31.31;26.07
69772;BME280;57046;45.988;18.664;2022-07-06T12:38:26;100743.84;;;31.46;25.86
69772;BME280;57046;45.988;18.664;2022-07-06T12:40:52;100749.81;;;31.35;24.54
69772;BME280;57046;45.988;18.664;2022-07-06T12:43:40;100739.03;;;30.90;24.51
69772;BME280;57046;45.988;18.664;2022-07-06T12:46:32;100744.28;;;31.01;24.50
69772;BME280;57046;45.988;18.664;2022-07-06T12:49:00;100740.66;;;30.66;25.33
69772;BME280;57046;45.988;18.664;2022-07-06T12:51:25;100742.06;;;30.96;25.47